Eglin Air Force Base
KVPS : now visible

Airfield :











YOU CAN JOIN US ON...

 
LOGIN :

Register | Disclaimer

   EN    FR    IT 

 









Legend :    VFR   Marginal VFR   IFR   Intensive IFR   Very Intensive IFR
Visi :
Ceiling :
>= 8 km
>= 3000ft
5 to 8 km
1000 to 3000 ft
1500m to 5 km
500 to 1000 ft
800 to 1500m
200 to 500 ft
< 800m
< 200 ft
Symbols :   Thunderstorms  Fog  Heavy snow  Heavy precipitations  Wind > 20 kt






- Airport Elevation : 87 ft
- IATA code : VPS


KVPS - Eglin Air Force Base

CURRENT METAR :
  • 170356Z AUTO 07005KT 10SM BKN005 OVC011 14/14 A3003 RMK AO2 RAE09DZB09E10 SLP176 P0000 T01380138 $

EXPIRED METARs :
  • 170340Z AUTO 07006KT 10SM BKN005 OVC011 14/14 A3003 RMK AO2 RAE09DZB09E10 BKN V OVC SLP176 $
  • 170310Z AUTO 03007KT 10SM BKN005 OVC011 14/14 A3004 RMK AO2 RAE09DZB09E10 CIG 004 RWY01 CIG 004 RWY12 CIG 004 RWY30 SLP179 $
  • 170256Z AUTO 04005KT 10SM RA OVC004 14/14 A3004 RMK AO2 RAB31 SLP179 P0002 60002 T01400140 $
  • 170238Z AUTO 01006KT 10SM -RA OVC004 15/15 A3005 RMK AO2 RAB28 SLP183 $
  • 170228Z AUTO 01007KT 10SM -RA OVC005 15/15 A3005 RMK AO2 RAB28 CIG 004 RWY12 SLP183 $
  • 170156Z AUTO 01006KT 10SM BKN005 OVC026 15/15 A3003 RMK AO2 CIG 005V026 BKN V SCT SLP176 T01500150 $

TAF TAF KVPS
Valid from the 17 at 02:00 until the 18 at 08:00 UTC


170200Z 1702/1808 02007KT 9999 -RA BKN005 OVC020 QNH2998INS
BECMG 1703/1704 04007KT 8000 BR OVC003 QNH3000INS
BECMG 1707/1708 04005KT 4800 BR OVC002 QNH3003INS
TEMPO 1709/1712 1600 BR
BECMG 1716/1717 12007KT 9999 NSW BKN005 BKN010 OVC018 QNH3000INS
BECMG 1719/1720 15009KT 9999 OVC015 QNH2995INS TX19/1719Z TN10/1712Z



MET'MAP, your aeronautical weather chart ! - Copyright ORBIFLY December 2007 - Disclaimer

ORBIFLY MET'MAP TEAM :

Programming & Development : Alexandra Zaïnal
Concept & original design : Baudouin d'Aumeries
Assistance for programming : Marc-Olivier Méhu
Technical & hardware support : Manuel Goepfert

Contact : metmap@orbifly.com




SOURCES & CREDITS :

   NOAA       Earth
Advisory